createdAt,value
2024-02-02T00:04:49.065Z,83.21
2024-02-02T00:09:49.310Z,83.48
2024-02-02T00:14:49.142Z,82.98
2024-02-02T00:19:49.216Z,82.88
2024-02-02T00:24:51.382Z,83.02
2024-02-02T00:29:49.007Z,82.86
2024-02-02T00:34:49.234Z,82.89
2024-02-02T00:39:49.239Z,81.78
2024-02-02T00:44:49.046Z,81.63
2024-02-02T00:49:49.089Z,81.17
2024-02-02T00:54:49.142Z,80.48
2024-02-02T00:59:50.436Z,80.22
2024-02-02T01:04:48.967Z,79.34
2024-02-02T01:09:49.400Z,78.62
2024-02-02T01:14:49.057Z,77.96
2024-02-02T01:19:49.765Z,77.02
2024-02-02T01:24:51.194Z,76.62
2024-02-02T01:29:49.061Z,76.42
2024-02-02T01:34:49.120Z,75.26
2024-02-02T01:39:49.107Z,74.76
2024-02-02T01:44:49.918Z,74.88
2024-02-02T01:49:49.002Z,74.43
2024-02-02T01:54:49.208Z,74.39
2024-02-02T01:59:49.348Z,74.19
2024-02-02T02:04:48.904Z,74.26
2024-02-02T02:09:51.003Z,74.09
2024-02-02T02:14:49.023Z,73.81
2024-02-02T02:19:49.526Z,73.72
2024-02-02T02:24:49.082Z,74.02
2024-02-02T02:29:48.953Z,74.27
2024-02-02T02:34:49.046Z,74.31
2024-02-02T02:39:50.909Z,74.53
2024-02-02T02:44:49.061Z,74.99
2024-02-02T02:49:48.967Z,75.80
2024-02-02T02:54:51.001Z,76.68
2024-02-02T02:59:48.907Z,77.17
2024-02-02T03:04:48.878Z,77.53
2024-02-02T03:09:50.525Z,77.94
2024-02-02T03:14:48.947Z,78.87
2024-02-02T03:19:48.839Z,78.89
2024-02-02T03:24:50.950Z,78.61
2024-02-02T03:29:48.922Z,78.73
2024-02-02T03:34:48.949Z,78.16
2024-02-02T03:39:51.379Z,77.78
2024-02-02T03:44:48.789Z,77.88
2024-02-02T03:49:48.931Z,78.33
2024-02-02T03:54:49.325Z,78.25
2024-02-02T03:59:48.888Z,79.07
2024-02-02T04:04:48.842Z,79.57
2024-02-02T04:09:50.970Z,79.83
2024-02-02T04:14:48.845Z,79.89
2024-02-02T04:19:48.843Z,80.00
2024-02-02T04:24:50.508Z,80.00
2024-02-02T04:29:48.722Z,79.64
2024-02-02T04:34:48.986Z,79.62
2024-02-02T04:39:49.086Z,79.22
2024-02-02T04:44:48.766Z,79.24
2024-02-02T04:49:49.484Z,79.06
2024-02-02T04:54:53.723Z,78.77
2024-02-02T04:59:48.766Z,78.37
2024-02-02T05:04:48.745Z,78.32
2024-02-02T05:09:49.172Z,78.41
2024-02-02T05:14:49.283Z,77.91
2024-02-02T05:19:49.921Z,77.95
2024-02-02T05:24:49.619Z,77.81
2024-02-02T05:29:49.115Z,78.11
2024-02-02T05:34:48.845Z,78.14
2024-02-02T05:39:49.066Z,77.96
2024-02-02T05:44:48.661Z,77.73
2024-02-02T05:49:49.609Z,77.89
2024-02-02T05:54:48.939Z,77.86
2024-02-02T05:59:49.324Z,77.68
2024-02-02T06:04:48.967Z,78.11
2024-02-02T06:09:49.003Z,77.78
2024-02-02T06:14:48.619Z,77.55
2024-02-02T06:19:48.792Z,77.14
2024-02-02T06:24:48.988Z,77.18
2024-02-02T06:29:49.205Z,77.21
2024-02-02T06:34:51.794Z,76.86
2024-02-02T06:39:48.992Z,76.75
2024-02-02T06:44:50.823Z,76.76
2024-02-02T06:49:49.072Z,76.09
2024-02-02T06:54:50.649Z,75.58
2024-02-02T06:59:49.613Z,75.17
2024-02-02T07:04:49.160Z,75.11
2024-02-02T07:09:51.529Z,75.08
2024-02-02T07:14:50.323Z,74.26
2024-02-02T07:19:49.303Z,73.88
2024-02-02T07:24:49.006Z,73.10
2024-02-02T07:29:49.279Z,72.49
2024-02-02T07:34:50.674Z,71.65
2024-02-02T07:39:49.095Z,70.66
2024-02-02T07:44:48.581Z,69.75
2024-02-02T07:49:48.735Z,68.80
2024-02-02T07:54:48.827Z,67.39
2024-02-02T07:59:48.534Z,66.12
2024-02-02T08:04:48.710Z,63.96
2024-02-02T08:09:48.797Z,59.58
2024-02-02T08:14:48.517Z,53.73
2024-02-02T08:19:48.900Z,48.78
2024-02-02T08:24:50.375Z,38.94
2024-02-02T08:29:48.766Z,30.96
2024-02-02T08:34:48.567Z,29.53
2024-02-02T08:39:53.018Z,25.39
2024-02-02T08:44:49.170Z,25.50
2024-02-02T08:49:53.674Z,22.71
2024-02-02T08:54:49.266Z,22.21
2024-02-02T08:59:52.700Z,21.67
2024-02-02T09:05:01.447Z,20.04
2024-02-02T09:09:48.588Z,20.29
2024-02-02T09:14:48.568Z,17.70
2024-02-02T09:19:53.362Z,18.53
2024-02-02T09:24:49.872Z,18.03
2024-02-02T09:29:49.312Z,17.63
2024-02-02T09:34:49.059Z,17.18
2024-02-02T09:39:51.317Z,17.46
2024-02-02T09:44:53.166Z,19.04
2024-02-02T09:49:57.233Z,19.04
2024-02-02T09:54:58.385Z,18.77
2024-02-02T10:00:01.574Z,22.68
2024-02-02T10:05:00.256Z,25.05
2024-02-02T10:10:01.500Z,26.60
2024-02-02T10:15:04.461Z,28.34
2024-02-02T10:20:01.479Z,29.74
2024-02-02T10:25:00.396Z,32.25
2024-02-02T10:30:05.727Z,33.66
2024-02-02T10:34:57.210Z,36.28
2024-02-02T10:40:00.530Z,38.82
2024-02-02T10:45:03.309Z,40.53
2024-02-02T10:49:57.272Z,41.51
2024-02-02T10:55:00.957Z,43.06
2024-02-02T11:00:02.648Z,44.49
2024-02-02T11:04:59.726Z,46.17
2024-02-02T11:09:56.050Z,47.53
2024-02-02T11:15:02.099Z,48.85
2024-02-02T11:20:01.445Z,49.41
2024-02-02T11:24:57.385Z,49.77
2024-02-02T11:29:56.977Z,49.90
2024-02-02T11:34:54.887Z,50.47
2024-02-02T11:39:56.732Z,51.77
2024-02-02T11:44:49.764Z,52.07
2024-02-02T11:49:56.183Z,52.25
2024-02-02T11:54:55.861Z,52.42
2024-02-02T11:59:54.347Z,53.47
2024-02-02T12:04:55.132Z,53.77
2024-02-02T12:09:51.344Z,53.52
2024-02-02T12:14:51.019Z,54.00
2024-02-02T12:19:49.299Z,55.26
2024-02-02T12:24:48.808Z,55.68
2024-02-02T12:29:48.466Z,56.77
2024-02-02T12:34:50.442Z,57.54
2024-02-02T12:39:52.320Z,58.34
2024-02-02T12:44:49.578Z,59.58
2024-02-02T12:49:48.730Z,60.92
2024-02-02T12:54:51.425Z,61.10
2024-02-02T12:59:48.493Z,61.76
2024-02-02T13:04:51.703Z,62.22
2024-02-02T13:09:50.448Z,62.65
2024-02-02T13:14:48.427Z,62.76
2024-02-02T13:19:57.858Z,63.17
2024-02-02T13:24:50.647Z,62.95
2024-02-02T13:29:51.629Z,63.39
2024-02-02T13:34:49.101Z,64.22
2024-02-02T13:39:50.230Z,64.21
2024-02-02T13:44:48.406Z,65.94
2024-02-02T13:49:55.477Z,66.82
2024-02-02T13:54:53.522Z,66.67
2024-02-02T13:59:49.132Z,67.75
2024-02-02T14:04:48.739Z,68.14
2024-02-02T14:09:50.221Z,68.22
2024-02-02T14:14:48.659Z,69.45
2024-02-02T14:20:00.151Z,70.52
2024-02-02T14:24:51.337Z,70.62
2024-02-02T14:29:49.038Z,71.26
2024-02-02T14:34:48.701Z,72.50
2024-02-02T14:39:50.457Z,73.00
2024-02-02T14:44:48.454Z,73.68
2024-02-02T14:49:48.702Z,74.17
2024-02-02T14:54:48.770Z,74.46
2024-02-02T14:59:51.690Z,73.71
2024-02-02T15:04:52.073Z,74.15
2024-02-02T15:09:49.955Z,74.42
2024-02-02T15:14:48.460Z,73.87
2024-02-02T15:19:48.429Z,73.79
2024-02-02T15:24:48.349Z,74.55
2024-02-02T15:29:48.281Z,74.31
2024-02-02T15:34:50.427Z,74.33
2024-02-02T15:39:56.259Z,75.21
2024-02-02T15:44:48.419Z,75.01
2024-02-02T15:49:50.609Z,74.96
2024-02-02T15:54:48.456Z,74.74
2024-02-02T15:59:48.266Z,74.91
2024-02-02T16:04:54.638Z,74.94
2024-02-02T16:09:48.295Z,75.40
2024-02-02T16:14:48.294Z,75.66
2024-02-02T16:19:48.638Z,75.96
2024-02-02T16:24:48.504Z,76.22
2024-02-02T16:29:48.254Z,77.50
2024-02-02T16:34:48.693Z,78.50
2024-02-02T16:39:48.298Z,78.12
2024-02-02T16:44:50.528Z,80.46
2024-02-02T16:49:49.973Z,81.66
2024-02-02T16:54:48.357Z,81.86
2024-02-02T16:59:48.580Z,82.96
2024-02-02T17:04:48.453Z,84.16
2024-02-02T17:09:48.359Z,85.10
2024-02-02T17:14:48.471Z,85.85
2024-02-02T17:19:50.776Z,86.19
2024-02-02T17:24:48.472Z,86.87
2024-02-02T17:29:48.297Z,86.88
2024-02-02T17:34:49.009Z,87.24
2024-02-02T17:39:49.659Z,87.41
2024-02-02T17:44:48.319Z,87.80
2024-02-02T17:49:51.812Z,87.57
2024-02-02T17:54:48.220Z,88.27
2024-02-02T17:59:48.235Z,88.42
2024-02-02T18:04:49.655Z,88.65
2024-02-02T18:09:48.325Z,89.35
2024-02-02T18:14:48.146Z,89.79
2024-02-02T18:19:48.330Z,91.42
2024-02-02T18:24:48.428Z,92.10
2024-02-02T18:29:52.012Z,92.48
2024-02-02T18:34:48.698Z,93.73
2024-02-02T18:39:48.276Z,94.59
2024-02-02T18:44:48.104Z,95.27
2024-02-02T18:49:48.469Z,96.16
2024-02-02T18:54:48.135Z,96.78
2024-02-02T18:59:48.136Z,97.43
2024-02-02T19:04:48.529Z,97.69
2024-02-02T19:09:48.162Z,98.33
2024-02-02T19:14:48.155Z,98.66
2024-02-02T19:19:49.198Z,99.13
2024-02-02T19:24:48.173Z,100.00
2024-02-02T19:29:48.106Z,100.00
2024-02-02T19:34:48.634Z,100.00
2024-02-02T19:39:48.189Z,100.00
2024-02-02T19:44:48.351Z,100.00
2024-02-02T19:49:48.271Z,100.00
2024-02-02T19:54:48.229Z,100.00
2024-02-02T19:59:48.014Z,100.00
2024-02-02T20:04:49.956Z,100.00
2024-02-02T20:09:48.647Z,100.00
2024-02-02T20:14:48.107Z,100.00
2024-02-02T20:19:48.508Z,100.00
2024-02-02T20:24:48.329Z,100.00
2024-02-02T20:29:48.150Z,100.00
2024-02-02T20:34:48.197Z,100.00
2024-02-02T20:39:48.439Z,100.00
2024-02-02T20:44:49.252Z,100.00
2024-02-02T20:49:48.074Z,100.00
2024-02-02T20:54:48.579Z,100.00
2024-02-02T20:59:48.363Z,100.00
2024-02-02T21:04:48.138Z,100.00
2024-02-02T21:09:49.041Z,100.00
2024-02-02T21:14:47.976Z,100.00
2024-02-02T21:19:50.252Z,100.00
2024-02-02T21:24:48.334Z,100.00
2024-02-02T21:29:48.221Z,100.00
2024-02-02T21:34:48.023Z,100.00
2024-02-02T21:39:50.154Z,100.00
2024-02-02T21:44:48.122Z,100.00
2024-02-02T21:49:48.151Z,100.00
2024-02-02T21:54:49.763Z,100.00
2024-02-02T21:59:49.994Z,100.00
2024-02-02T22:04:52.815Z,100.00
2024-02-02T22:09:48.464Z,100.00
2024-02-02T22:14:48.175Z,100.00
2024-02-02T22:19:48.201Z,100.00
2024-02-02T22:24:50.215Z,100.00
2024-02-02T22:29:48.045Z,100.00
2024-02-02T22:34:48.443Z,100.00
2024-02-02T22:39:48.496Z,100.00
2024-02-02T22:44:48.176Z,100.00
2024-02-02T22:49:48.119Z,100.00
2024-02-02T22:54:48.248Z,100.00
2024-02-02T22:59:53.573Z,100.00
2024-02-02T23:04:48.030Z,100.00
2024-02-02T23:09:50.510Z,100.00
2024-02-02T23:14:47.947Z,100.00
2024-02-02T23:19:48.154Z,100.00
2024-02-02T23:24:48.159Z,100.00
2024-02-02T23:29:47.976Z,100.00
2024-02-02T23:34:47.914Z,100.00
2024-02-02T23:39:49.863Z,100.00
2024-02-02T23:44:48.050Z,100.00
2024-02-02T23:49:48.016Z,100.00
2024-02-02T23:54:49.827Z,100.00
2024-02-02T23:59:47.871Z,100.00
